createdAt,value
2023-03-01T00:02:21.167Z,10.02
2023-03-01T00:05:23.446Z,10.27
2023-03-01T00:08:26.507Z,9.85
2023-03-01T00:11:31.420Z,10.63
2023-03-01T00:14:33.770Z,8.95
2023-03-01T00:17:36.082Z,9.73
2023-03-01T00:20:38.305Z,9.93
2023-03-01T00:23:40.622Z,9.70
2023-03-01T00:26:43.654Z,9.75
2023-03-01T00:29:46.194Z,10.65
2023-03-01T00:32:48.547Z,10.07
2023-03-01T00:35:50.741Z,9.27
2023-03-01T00:38:53.234Z,8.50
2023-03-01T00:41:55.529Z,8.60
2023-03-01T00:44:57.672Z,10.95
2023-03-01T00:47:59.881Z,9.40
2023-03-01T00:51:16.985Z,9.40
2023-03-01T00:54:19.187Z,9.45
2023-03-01T00:57:23.316Z,9.95
2023-03-01T01:00:29.090Z,9.98
2023-03-01T01:03:31.548Z,9.27
2023-03-01T01:06:37.253Z,9.43
2023-03-01T01:09:39.721Z,8.90
2023-03-01T01:12:41.983Z,10.68
2023-03-01T01:15:44.431Z,9.38
2023-03-01T01:18:47.052Z,8.98
2023-03-01T01:21:49.446Z,8.52
2023-03-01T01:24:51.672Z,9.77
2023-03-01T01:27:53.979Z,11.10
2023-03-01T01:30:56.175Z,9.43
2023-03-01T01:34:00.135Z,10.77
2023-03-01T01:37:03.928Z,9.75
2023-03-01T01:40:07.399Z,9.65
2023-03-01T01:43:28.848Z,10.07
2023-03-01T01:46:34.236Z,10.40
2023-03-01T01:49:43.191Z,10.30
2023-03-01T01:52:48.355Z,10.38
2023-03-01T01:55:58.204Z,9.07
2023-03-01T01:59:02.611Z,8.77
2023-03-01T02:02:06.194Z,9.18
2023-03-01T02:05:55.570Z,9.32
2023-03-01T02:09:09.359Z,9.47
2023-03-01T02:12:12.161Z,8.52
2023-03-01T02:15:14.451Z,8.70
2023-03-01T02:18:21.245Z,9.23
2023-03-01T02:21:23.617Z,8.98
2023-03-01T02:24:50.228Z,8.73
2023-03-01T02:28:16.676Z,9.48
2023-03-01T02:31:40.205Z,9.55
2023-03-01T02:34:42.764Z,8.50
2023-03-01T02:37:45.795Z,9.23
2023-03-01T02:40:50.028Z,9.07
2023-03-01T02:43:52.223Z,9.48
2023-03-01T02:46:57.569Z,9.02
2023-03-01T02:49:59.841Z,10.48
2023-03-01T02:53:26.108Z,9.65
2023-03-01T02:56:29.427Z,9.52
2023-03-01T02:59:40.638Z,9.63
2023-03-01T03:02:44.129Z,9.95
2023-03-01T03:05:54.195Z,9.85
2023-03-01T03:08:56.617Z,11.15
2023-03-01T03:11:58.725Z,10.43
2023-03-01T03:15:01.378Z,9.82
2023-03-01T03:18:06.611Z,10.13
2023-03-01T03:21:13.609Z,10.98
2023-03-01T03:24:15.889Z,11.05
2023-03-01T03:27:18.047Z,11.02
2023-03-01T03:30:22.874Z,11.63
2023-03-01T03:33:25.455Z,9.57
2023-03-01T03:36:27.963Z,10.35
2023-03-01T03:39:35.960Z,10.75
2023-03-01T03:42:38.087Z,10.32
2023-03-01T03:45:40.466Z,10.73
2023-03-01T03:48:45.629Z,10.05
2023-03-01T03:51:47.895Z,11.25
2023-03-01T03:54:50.183Z,10.70
2023-03-01T03:57:52.756Z,10.93
2023-03-01T04:00:57.924Z,9.32
2023-03-01T04:04:05.264Z,10.50
2023-03-01T04:07:07.501Z,8.82
2023-03-01T04:10:13.171Z,8.85
2023-03-01T04:13:20.203Z,9.68
2023-03-01T04:16:22.735Z,9.48
2023-03-01T04:19:25.000Z,9.93
2023-03-01T04:22:30.724Z,9.60
2023-03-01T04:25:32.941Z,10.02
2023-03-01T04:28:38.656Z,10.48
2023-03-01T04:31:40.940Z,9.82
2023-03-01T04:34:43.137Z,9.05
2023-03-01T04:37:46.204Z,9.88
2023-03-01T04:40:48.730Z,9.70
2023-03-01T04:43:51.222Z,9.80
2023-03-01T04:46:53.482Z,10.05
2023-03-01T04:49:55.951Z,8.43
2023-03-01T04:53:01.128Z,8.40
2023-03-01T04:56:04.210Z,8.85
2023-03-01T04:59:06.842Z,8.85
2023-03-01T05:02:09.036Z,8.45
2023-03-01T05:05:11.190Z,8.38
2023-03-01T05:08:18.477Z,8.80
2023-03-01T05:11:21.206Z,9.57
2023-03-01T05:14:24.084Z,10.00
2023-03-01T05:17:26.314Z,8.65
2023-03-01T05:20:31.734Z,8.20
2023-03-01T05:23:34.973Z,9.27
2023-03-01T05:26:41.663Z,9.45
2023-03-01T05:29:43.956Z,9.32
2023-03-01T05:32:49.060Z,9.48
2023-03-01T05:35:52.946Z,9.02
2023-03-01T05:38:55.179Z,9.63
2023-03-01T05:41:59.512Z,9.52
2023-03-01T05:45:01.727Z,9.15
2023-03-01T05:48:06.142Z,10.18
2023-03-01T05:51:08.454Z,10.07
2023-03-01T05:54:11.332Z,10.15
2023-03-01T05:57:13.599Z,10.05
2023-03-01T06:00:17.777Z,10.82
2023-03-01T06:03:19.978Z,9.80
2023-03-01T06:06:22.244Z,11.13
2023-03-01T06:09:24.430Z,10.90
2023-03-01T06:12:26.570Z,10.15
2023-03-01T06:15:28.748Z,10.77
2023-03-01T06:18:30.927Z,10.32
2023-03-01T06:21:33.438Z,11.85
2023-03-01T06:24:35.740Z,11.73
2023-03-01T06:27:37.853Z,10.98
2023-03-01T06:30:39.984Z,11.43
2023-03-01T06:33:42.221Z,12.02
2023-03-01T06:36:44.460Z,11.93
2023-03-01T06:39:46.874Z,12.63
2023-03-01T06:42:51.213Z,9.85
2023-03-01T06:45:53.390Z,11.05
2023-03-01T06:48:55.698Z,12.35
2023-03-01T06:51:58.450Z,12.05
2023-03-01T06:55:01.019Z,12.88
2023-03-01T06:58:04.483Z,12.13
2023-03-01T07:01:10.942Z,11.45
2023-03-01T07:04:14.492Z,12.77
2023-03-01T07:07:16.821Z,12.80
2023-03-01T07:10:19.121Z,11.23
2023-03-01T07:13:21.341Z,12.15
2023-03-01T07:16:23.700Z,12.52
2023-03-01T07:19:26.131Z,13.00
2023-03-01T07:22:28.245Z,12.25
2023-03-01T07:25:30.402Z,12.38
2023-03-01T07:28:37.003Z,13.52
2023-03-01T07:31:39.295Z,13.10
2023-03-01T07:34:41.496Z,14.25
2023-03-01T07:37:43.669Z,13.02
2023-03-01T07:40:46.409Z,14.65
2023-03-01T07:43:48.600Z,13.13
2023-03-01T07:46:50.728Z,14.05
2023-03-01T07:49:52.904Z,15.48
2023-03-01T07:52:55.094Z,14.75
2023-03-01T07:56:08.659Z,13.95
2023-03-01T07:59:10.887Z,12.40
2023-03-01T08:02:13.108Z,12.75
2023-03-01T08:05:15.481Z,14.35
2023-03-01T08:08:18.684Z,14.38
2023-03-01T08:11:21.201Z,13.60
2023-03-01T08:14:23.476Z,14.20
2023-03-01T08:17:25.683Z,14.77
2023-03-01T08:20:28.045Z,14.05
2023-03-01T08:23:31.051Z,13.13
2023-03-01T08:26:34.196Z,14.63
2023-03-01T08:29:36.324Z,14.68
2023-03-01T08:32:41.694Z,15.10
2023-03-01T08:35:43.934Z,14.68
2023-03-01T08:38:46.919Z,15.60
2023-03-01T08:41:49.338Z,14.93
2023-03-01T08:44:51.472Z,14.82
2023-03-01T08:47:54.497Z,14.98
2023-03-01T08:50:57.070Z,15.80
2023-03-01T08:53:59.262Z,13.55
2023-03-01T08:57:03.792Z,14.90
2023-03-01T09:00:09.729Z,13.52
2023-03-01T09:03:11.966Z,13.90
2023-03-01T09:06:14.999Z,16.90
2023-03-01T09:09:18.503Z,15.80
2023-03-01T09:12:20.940Z,15.13
2023-03-01T09:15:23.116Z,12.85
2023-03-01T09:18:25.372Z,15.32
2023-03-01T09:21:39.719Z,15.10
2023-03-01T09:24:42.647Z,14.73
2023-03-01T09:27:44.830Z,13.50
2023-03-01T09:30:47.053Z,14.93
2023-03-01T09:33:51.241Z,14.52
2023-03-01T09:36:53.516Z,15.73
2023-03-01T09:39:55.675Z,13.38
2023-03-01T09:43:14.119Z,15.88
2023-03-01T09:46:20.207Z,14.23
2023-03-01T09:49:36.209Z,13.93
2023-03-01T09:53:07.760Z,15.73
2023-03-01T09:56:31.300Z,15.48
2023-03-01T09:59:42.483Z,16.23
2023-03-01T10:03:07.700Z,14.50
2023-03-01T10:06:23.977Z,14.95
2023-03-01T10:09:37.611Z,14.85
2023-03-01T10:12:42.450Z,14.88
2023-03-01T10:15:58.943Z,16.58
2023-03-01T10:19:04.734Z,16.83
2023-03-01T10:22:17.458Z,13.77
2023-03-01T10:25:41.810Z,16.10
2023-03-01T10:29:08.884Z,15.82
2023-03-01T10:32:12.290Z,14.82
2023-03-01T10:35:26.892Z,16.10
2023-03-01T10:38:32.816Z,14.75
2023-03-01T10:41:38.501Z,17.25
2023-03-01T10:44:49.761Z,15.38
2023-03-01T10:48:14.495Z,15.57
2023-03-01T10:51:21.379Z,16.52
2023-03-01T10:54:30.196Z,16.58
2023-03-01T10:57:42.318Z,14.70
2023-03-01T11:00:53.937Z,14.20
2023-03-01T11:04:08.405Z,15.05
2023-03-01T11:07:10.781Z,13.85
2023-03-01T11:10:13.475Z,15.85
2023-03-01T11:13:18.953Z,15.95
2023-03-01T11:16:30.320Z,15.88
2023-03-01T11:19:33.455Z,17.05
2023-03-01T11:22:36.971Z,17.15
2023-03-01T11:25:43.255Z,17.83
2023-03-01T11:28:51.669Z,16.35
2023-03-01T11:31:58.839Z,15.20
2023-03-01T11:35:15.854Z,16.42
2023-03-01T11:38:24.673Z,15.07
2023-03-01T11:41:33.708Z,15.70
2023-03-01T11:44:39.320Z,12.30
2023-03-01T11:48:48.900Z,16.35
2023-03-01T11:52:14.548Z,15.40
2023-03-01T11:55:29.492Z,13.70
2023-03-01T11:59:00.381Z,14.18
2023-03-01T12:02:34.341Z,15.45
2023-03-01T12:06:04.399Z,15.43
2023-03-01T12:09:37.492Z,14.07
2023-03-01T12:12:54.714Z,15.30
2023-03-01T12:16:17.618Z,14.10
2023-03-01T12:19:51.462Z,15.43
2023-03-01T12:23:19.394Z,14.85
2023-03-01T12:26:21.965Z,16.13
2023-03-01T12:29:35.976Z,15.98
2023-03-01T12:33:02.667Z,16.50
2023-03-01T12:36:11.039Z,14.73
2023-03-01T12:39:52.234Z,14.45
2023-03-01T12:43:17.883Z,14.98
2023-03-01T12:46:53.814Z,14.40
2023-03-01T12:50:01.207Z,14.20
2023-03-01T12:53:03.501Z,14.48
2023-03-01T12:56:13.229Z,14.85
2023-03-01T12:59:42.248Z,16.05
2023-03-01T13:03:01.083Z,13.00
2023-03-01T13:06:09.458Z,14.48
2023-03-01T13:09:31.954Z,15.13
2023-03-01T13:12:58.452Z,14.18
2023-03-01T13:16:22.522Z,14.10
2023-03-01T13:19:27.395Z,14.30
2023-03-01T13:22:39.717Z,14.27
2023-03-01T13:26:09.920Z,13.25
2023-03-01T13:29:27.991Z,12.68
2023-03-01T13:32:44.697Z,13.55
2023-03-01T13:35:47.374Z,10.52
2023-03-01T13:38:56.419Z,11.23
2023-03-01T13:42:00.160Z,12.68
2023-03-01T13:45:02.480Z,11.73
2023-03-01T13:48:30.161Z,10.88
2023-03-01T13:51:32.518Z,9.15
2023-03-01T13:54:34.815Z,10.90
2023-03-01T13:57:42.304Z,11.85
2023-03-01T14:00:44.480Z,11.10
2023-03-01T14:03:46.876Z,11.82
2023-03-01T14:06:49.023Z,11.23
2023-03-01T14:09:56.707Z,10.80
2023-03-01T14:13:20.491Z,10.63
2023-03-01T14:16:41.171Z,9.98
2023-03-01T14:19:46.317Z,9.43
2023-03-01T14:22:50.733Z,9.40
2023-03-01T14:25:57.715Z,9.52
2023-03-01T14:28:59.873Z,8.93
2023-03-01T14:32:26.219Z,7.70
2023-03-01T14:35:35.008Z,8.32
2023-03-01T14:38:38.537Z,8.50
2023-03-01T14:41:40.776Z,7.60
2023-03-01T14:44:48.728Z,8.02
2023-03-01T14:47:51.935Z,7.80
2023-03-01T14:50:54.504Z,7.50
2023-03-01T14:53:57.476Z,7.20
2023-03-01T14:57:01.678Z,7.43
2023-03-01T15:00:07.546Z,6.55
2023-03-01T15:03:25.904Z,7.95
2023-03-01T15:06:28.217Z,6.72
2023-03-01T15:09:30.955Z,7.18
2023-03-01T15:12:37.630Z,7.63
2023-03-01T15:15:44.689Z,5.50
2023-03-01T15:19:00.387Z,6.18
2023-03-01T15:22:13.161Z,6.60
2023-03-01T15:25:20.957Z,5.45
2023-03-01T15:28:31.783Z,6.45
2023-03-01T15:31:39.598Z,5.82
2023-03-01T15:34:41.871Z,5.28
2023-03-01T15:37:50.893Z,5.85
2023-03-01T15:40:53.533Z,4.57
2023-03-01T15:43:56.827Z,5.53
2023-03-01T15:46:59.224Z,5.57
2023-03-01T15:50:02.695Z,6.18
2023-03-01T15:53:13.382Z,5.53
2023-03-01T15:56:15.507Z,5.53
2023-03-01T15:59:18.591Z,5.63
2023-03-01T16:02:22.236Z,5.18
2023-03-01T16:05:31.584Z,6.03
2023-03-01T16:08:33.710Z,5.45
2023-03-01T16:11:40.927Z,5.30
2023-03-01T16:14:43.248Z,5.72
2023-03-01T16:17:45.500Z,5.45
2023-03-01T16:20:57.343Z,5.75
2023-03-01T16:23:59.492Z,5.32
2023-03-01T16:27:01.716Z,5.22
2023-03-01T16:30:05.270Z,5.03
2023-03-01T16:33:30.334Z,5.25
2023-03-01T16:36:31.325Z,5.05
2023-03-01T16:39:33.949Z,5.28
2023-03-01T16:42:36.472Z,5.35
2023-03-01T16:45:45.884Z,4.63
2023-03-01T16:48:48.979Z,5.13
2023-03-01T16:51:51.301Z,4.72
2023-03-01T16:54:53.719Z,4.95
2023-03-01T16:57:56.022Z,4.85
2023-03-01T17:01:04.283Z,4.78
2023-03-01T17:04:06.708Z,5.40
2023-03-01T17:07:08.931Z,5.20
2023-03-01T17:10:12.213Z,4.75
2023-03-01T17:13:14.540Z,4.50
2023-03-01T17:16:19.718Z,4.53
2023-03-01T17:19:22.017Z,4.15
2023-03-01T17:22:24.328Z,4.82
2023-03-01T17:25:26.530Z,3.67
2023-03-01T17:28:30.244Z,4.78
2023-03-01T17:31:34.264Z,5.38
2023-03-01T17:34:37.605Z,4.20
2023-03-01T17:37:40.054Z,4.57
2023-03-01T17:40:43.605Z,4.70
2023-03-01T17:43:46.122Z,5.15
2023-03-01T17:46:48.439Z,4.65
2023-03-01T17:49:50.728Z,4.32
2023-03-01T17:52:53.144Z,4.38
2023-03-01T17:56:01.713Z,4.90
2023-03-01T17:59:05.420Z,4.80
2023-03-01T18:02:07.670Z,4.35
2023-03-01T18:05:10.751Z,4.63
2023-03-01T18:08:12.963Z,4.47
2023-03-01T18:11:15.278Z,4.13
2023-03-01T18:14:17.474Z,4.70
2023-03-01T18:17:24.254Z,4.35
2023-03-01T18:20:27.481Z,4.82
2023-03-01T18:23:31.825Z,4.40
2023-03-01T18:26:34.313Z,4.40
2023-03-01T18:29:38.073Z,5.00
2023-03-01T18:32:40.264Z,4.40
2023-03-01T18:35:42.598Z,4.95
2023-03-01T18:38:44.812Z,4.50
2023-03-01T18:41:47.029Z,4.20
2023-03-01T18:44:49.662Z,5.13
2023-03-01T18:47:51.915Z,4.50
2023-03-01T18:50:54.068Z,4.30
2023-03-01T18:54:00.565Z,4.53
2023-03-01T18:57:02.910Z,5.53
2023-03-01T19:00:05.779Z,4.50
2023-03-01T19:03:08.170Z,5.07
2023-03-01T19:06:10.764Z,5.20
2023-03-01T19:09:13.172Z,4.43
2023-03-01T19:12:15.312Z,4.63
2023-03-01T19:15:17.752Z,6.35
2023-03-01T19:18:19.934Z,5.65
2023-03-01T19:21:25.336Z,5.57
2023-03-01T19:24:27.884Z,5.68
2023-03-01T19:27:30.017Z,5.10
2023-03-01T19:30:32.146Z,6.18
2023-03-01T19:33:35.601Z,5.47
2023-03-01T19:36:38.780Z,6.13
2023-03-01T19:39:42.984Z,4.97
2023-03-01T19:42:45.275Z,5.55
2023-03-01T19:45:52.146Z,5.68
2023-03-01T19:48:54.910Z,5.25
2023-03-01T19:51:56.970Z,5.55
2023-03-01T19:55:09.006Z,5.47
2023-03-01T19:58:12.219Z,5.35
2023-03-01T20:01:20.211Z,5.32
2023-03-01T20:04:22.421Z,5.45
2023-03-01T20:07:24.576Z,5.43
2023-03-01T20:10:29.178Z,4.82
2023-03-01T20:13:31.736Z,5.25
2023-03-01T20:16:34.386Z,4.40
2023-03-01T20:19:37.042Z,5.00
2023-03-01T20:22:39.696Z,4.90
2023-03-01T20:25:42.135Z,4.88
2023-03-01T20:28:44.776Z,4.38
2023-03-01T20:31:46.962Z,4.68
2023-03-01T20:34:49.601Z,4.78
2023-03-01T20:37:53.556Z,4.82
2023-03-01T20:41:10.647Z,5.00
2023-03-01T20:44:12.763Z,4.72
2023-03-01T20:47:15.511Z,4.28
2023-03-01T20:50:18.577Z,4.30
2023-03-01T20:53:20.838Z,4.18
2023-03-01T20:56:23.915Z,3.90
2023-03-01T20:59:38.001Z,4.03
2023-03-01T21:02:40.062Z,3.65
2023-03-01T21:05:42.279Z,3.22
2023-03-01T21:08:44.595Z,3.60
2023-03-01T21:11:51.817Z,3.53
2023-03-01T21:14:54.022Z,3.50
2023-03-01T21:17:56.393Z,3.50
2023-03-01T21:21:00.279Z,3.17
2023-03-01T21:24:02.766Z,2.90
2023-03-01T21:27:06.771Z,2.75
2023-03-01T21:30:09.477Z,2.65
2023-03-01T21:33:11.649Z,3.08
2023-03-01T21:36:14.520Z,3.28
2023-03-01T21:39:16.670Z,3.15
2023-03-01T21:42:18.913Z,2.95
2023-03-01T21:45:21.207Z,3.08
2023-03-01T21:48:23.468Z,2.60
2023-03-01T21:51:27.958Z,3.53
2023-03-01T21:54:30.281Z,2.45
2023-03-01T21:57:32.704Z,3.40
2023-03-01T22:00:39.610Z,3.42
2023-03-01T22:03:45.535Z,3.33
2023-03-01T22:06:48.109Z,3.10
2023-03-01T22:09:50.234Z,2.92
2023-03-01T22:12:53.183Z,2.92
2023-03-01T22:15:55.318Z,2.78
2023-03-01T22:18:58.236Z,3.15
2023-03-01T22:22:00.372Z,2.97
2023-03-01T22:25:02.876Z,3.25
2023-03-01T22:28:05.043Z,2.95
2023-03-01T22:31:07.340Z,3.40
2023-03-01T22:34:10.084Z,3.15
2023-03-01T22:37:12.243Z,3.13
2023-03-01T22:40:14.741Z,3.28
2023-03-01T22:43:16.829Z,3.10
2023-03-01T22:46:20.633Z,3.13
2023-03-01T22:49:23.228Z,3.00
2023-03-01T22:52:25.407Z,2.40
2023-03-01T22:55:28.645Z,3.17
2023-03-01T22:58:30.858Z,3.30
2023-03-01T23:01:33.098Z,3.25
2023-03-01T23:04:35.921Z,3.70
2023-03-01T23:07:38.145Z,3.05
2023-03-01T23:10:41.236Z,3.05
2023-03-01T23:13:43.980Z,3.17
2023-03-01T23:16:46.257Z,3.22
2023-03-01T23:19:51.548Z,3.20
2023-03-01T23:22:53.671Z,3.15
2023-03-01T23:25:57.590Z,3.17
2023-03-01T23:28:59.674Z,3.28
2023-03-01T23:32:02.412Z,3.13
2023-03-01T23:35:06.110Z,3.35
2023-03-01T23:38:08.239Z,3.17
2023-03-01T23:41:30.667Z,2.72
2023-03-01T23:44:33.024Z,2.78
2023-03-01T23:47:36.116Z,3.28
2023-03-01T23:50:42.912Z,3.03
2023-03-01T23:53:54.710Z,3.00
2023-03-01T23:56:57.005Z,2.80
2023-03-01T23:59:59.375Z,2.53
